sensor_id;sensor_type;location;lat;lon;timestamp;pressure;altitude;pressure_sealevel;temperature;humidity
11339;BME280;5724;42.684;23.252;2023-08-01T00:02:16;94069.50;;;20.07;73.94
11339;BME280;5724;42.684;23.252;2023-08-01T00:04:41;94055.22;;;20.09;74.09
11339;BME280;5724;42.684;23.252;2023-08-01T00:07:07;94075.41;;;20.29;73.21
11339;BME280;5724;42.684;23.252;2023-08-01T00:09:32;94074.41;;;20.39;72.52
11339;BME280;5724;42.684;23.252;2023-08-01T00:11:58;94068.38;;;20.24;72.75
11339;BME280;5724;42.684;23.252;2023-08-01T00:14:23;94060.78;;;20.28;71.82
11339;BME280;5724;42.684;23.252;2023-08-01T00:16:51;94049.72;;;20.05;72.24
11339;BME280;5724;42.684;23.252;2023-08-01T00:19:18;94068.38;;;20.05;72.21
11339;BME280;5724;42.684;23.252;2023-08-01T00:21:43;94066.81;;;20.04;72.11
11339;BME280;5724;42.684;23.252;2023-08-01T00:24:09;94058.41;;;20.07;72.33
11339;BME280;5724;42.684;23.252;2023-08-01T00:26:34;94055.16;;;20.12;71.54
11339;BME280;5724;42.684;23.252;2023-08-01T00:29:00;94065.03;;;20.13;71.78
11339;BME280;5724;42.684;23.252;2023-08-01T00:31:25;94062.13;;;20.20;71.46
11339;BME280;5724;42.684;23.252;2023-08-01T00:33:51;94055.78;;;20.20;71.27
11339;BME280;5724;42.684;23.252;2023-08-01T00:36:16;94062.56;;;20.19;71.09
11339;BME280;5724;42.684;23.252;2023-08-01T00:38:42;94057.34;;;20.01;71.78
11339;BME280;5724;42.684;23.252;2023-08-01T00:41:09;94054.16;;;20.02;71.45
11339;BME280;5724;42.684;23.252;2023-08-01T00:43:35;94061.56;;;20.09;71.38
11339;BME280;5724;42.684;23.252;2023-08-01T00:46:03;94057.50;;;20.14;71.35
11339;BME280;5724;42.684;23.252;2023-08-01T00:48:30;94058.81;;;19.86;71.36
11339;BME280;5724;42.684;23.252;2023-08-01T00:51:00;94042.25;;;19.82;72.19
11339;BME280;5724;42.684;23.252;2023-08-01T00:53:26;94049.50;;;19.76;72.47
11339;BME280;5724;42.684;23.252;2023-08-01T00:55:52;94046.25;;;19.81;72.27
11339;BME280;5724;42.684;23.252;2023-08-01T00:58:21;94039.63;;;19.75;71.95
11339;BME280;5724;42.684;23.252;2023-08-01T01:00:46;94049.03;;;19.58;72.44
11339;BME280;5724;42.684;23.252;2023-08-01T01:03:14;94050.25;;;19.57;72.40
11339;BME280;5724;42.684;23.252;2023-08-01T01:05:47;94043.16;;;19.56;72.40
11339;BME280;5724;42.684;23.252;2023-08-01T01:08:14;94045.44;;;19.61;72.15
11339;BME280;5724;42.684;23.252;2023-08-01T01:10:40;94052.81;;;19.67;71.80
11339;BME280;5724;42.684;23.252;2023-08-01T01:13:05;94044.25;;;19.82;71.87
11339;BME280;5724;42.684;23.252;2023-08-01T01:15:31;94036.00;;;19.78;71.38
11339;BME280;5724;42.684;23.252;2023-08-01T01:17:56;94034.03;;;19.79;71.60
11339;BME280;5724;42.684;23.252;2023-08-01T01:20:23;94038.16;;;19.90;71.17
11339;BME280;5724;42.684;23.252;2023-08-01T01:22:53;94019.00;;;19.96;70.59
11339;BME280;5724;42.684;23.252;2023-08-01T01:25:20;94031.47;;;20.08;70.45
11339;BME280;5724;42.684;23.252;2023-08-01T01:27:51;94024.94;;;20.18;69.48
11339;BME280;5724;42.684;23.252;2023-08-01T01:30:18;94022.78;;;20.06;69.88
11339;BME280;5724;42.684;23.252;2023-08-01T01:32:44;94020.72;;;20.10;69.46
11339;BME280;5724;42.684;23.252;2023-08-01T01:35:10;94019.38;;;19.98;70.09
11339;BME280;5724;42.684;23.252;2023-08-01T01:37:35;94032.59;;;19.90;70.00
11339;BME280;5724;42.684;23.252;2023-08-01T01:40:00;94029.28;;;19.99;70.04
11339;BME280;5724;42.684;23.252;2023-08-01T01:42:26;94012.25;;;19.97;69.95
11339;BME280;5724;42.684;23.252;2023-08-01T01:44:51;94017.41;;;19.98;70.65
11339;BME280;5724;42.684;23.252;2023-08-01T01:47:17;94030.25;;;19.69;72.17
11339;BME280;5724;42.684;23.252;2023-08-01T01:49:43;94021.13;;;19.68;71.60
11339;BME280;5724;42.684;23.252;2023-08-01T01:52:08;94025.00;;;19.51;72.36
11339;BME280;5724;42.684;23.252;2023-08-01T01:54:33;94031.31;;;19.75;71.29
11339;BME280;5724;42.684;23.252;2023-08-01T01:56:59;94031.81;;;19.90;69.64
11339;BME280;5724;42.684;23.252;2023-08-01T01:59:24;94027.50;;;19.89;69.24
11339;BME280;5724;42.684;23.252;2023-08-01T02:01:50;94023.84;;;19.92;68.95
11339;BME280;5724;42.684;23.252;2023-08-01T02:04:15;94028.66;;;19.88;68.73
11339;BME280;5724;42.684;23.252;2023-08-01T02:06:40;94024.78;;;19.85;68.52
11339;BME280;5724;42.684;23.252;2023-08-01T02:09:06;94023.22;;;19.84;67.95
11339;BME280;5724;42.684;23.252;2023-08-01T02:11:32;94029.75;;;19.74;67.96
11339;BME280;5724;42.684;23.252;2023-08-01T02:13:57;94026.22;;;19.50;68.29
11339;BME280;5724;42.684;23.252;2023-08-01T02:16:23;94029.75;;;19.27;68.59
11339;BME280;5724;42.684;23.252;2023-08-01T02:18:48;94026.94;;;19.31;68.95
11339;BME280;5724;42.684;23.252;2023-08-01T02:21:14;94025.03;;;19.48;68.25
11339;BME280;5724;42.684;23.252;2023-08-01T02:23:39;94018.16;;;19.59;68.40
11339;BME280;5724;42.684;23.252;2023-08-01T02:26:04;94027.53;;;19.65;67.68
11339;BME280;5724;42.684;23.252;2023-08-01T02:28:31;94023.91;;;19.45;67.70
11339;BME280;5724;42.684;23.252;2023-08-01T02:30:56;94019.34;;;19.35;68.53
11339;BME280;5724;42.684;23.252;2023-08-01T02:33:21;94020.75;;;19.23;68.40
11339;BME280;5724;42.684;23.252;2023-08-01T02:35:47;94015.81;;;19.11;69.00
11339;BME280;5724;42.684;23.252;2023-08-01T02:38:13;94026.75;;;19.18;68.99
11339;BME280;5724;42.684;23.252;2023-08-01T02:40:38;94017.41;;;19.08;68.95
11339;BME280;5724;42.684;23.252;2023-08-01T02:43:04;94024.75;;;19.19;68.82
11339;BME280;5724;42.684;23.252;2023-08-01T02:45:29;94018.94;;;19.13;70.52
11339;BME280;5724;42.684;23.252;2023-08-01T02:47:54;94017.72;;;19.14;70.83
11339;BME280;5724;42.684;23.252;2023-08-01T02:50:20;94021.38;;;19.07;71.12
11339;BME280;5724;42.684;23.252;2023-08-01T02:52:45;94022.13;;;19.11;70.87
11339;BME280;5724;42.684;23.252;2023-08-01T02:55:11;94017.06;;;19.06;71.15
11339;BME280;5724;42.684;23.252;2023-08-01T02:57:36;94022.53;;;18.86;72.22
11339;BME280;5724;42.684;23.252;2023-08-01T03:00:02;94022.06;;;18.61;73.54
11339;BME280;5724;42.684;23.252;2023-08-01T03:02:30;94020.16;;;18.58;73.48
11339;BME280;5724;42.684;23.252;2023-08-01T03:04:56;94014.91;;;18.67;72.43
11339;BME280;5724;42.684;23.252;2023-08-01T03:07:22;94018.63;;;18.84;71.11
11339;BME280;5724;42.684;23.252;2023-08-01T03:09:47;94019.75;;;18.86;71.03
11339;BME280;5724;42.684;23.252;2023-08-01T03:12:12;94009.81;;;18.89;69.74
11339;BME280;5724;42.684;23.252;2023-08-01T03:14:38;94015.59;;;18.98;69.42
11339;BME280;5724;42.684;23.252;2023-08-01T03:17:03;94014.22;;;19.10;69.23
11339;BME280;5724;42.684;23.252;2023-08-01T03:19:29;94026.28;;;19.23;68.38
11339;BME280;5724;42.684;23.252;2023-08-01T03:21:55;94027.66;;;19.35;68.21
11339;BME280;5724;42.684;23.252;2023-08-01T03:24:21;94023.56;;;19.43;66.87
11339;BME280;5724;42.684;23.252;2023-08-01T03:26:46;94021.84;;;19.49;66.04
11339;BME280;5724;42.684;23.252;2023-08-01T03:29:12;94024.91;;;19.55;66.03
11339;BME280;5724;42.684;23.252;2023-08-01T03:31:37;94029.28;;;19.56;65.99
11339;BME280;5724;42.684;23.252;2023-08-01T03:34:03;94023.00;;;19.52;65.52
11339;BME280;5724;42.684;23.252;2023-08-01T03:36:28;94020.25;;;19.52;65.82
11339;BME280;5724;42.684;23.252;2023-08-01T03:38:54;94024.69;;;19.45;66.62
11339;BME280;5724;42.684;23.252;2023-08-01T03:41:19;94033.00;;;19.45;66.84
11339;BME280;5724;42.684;23.252;2023-08-01T03:43:44;94031.00;;;19.46;65.83
11339;BME280;5724;42.684;23.252;2023-08-01T03:46:10;94027.53;;;19.19;65.80
11339;BME280;5724;42.684;23.252;2023-08-01T03:48:35;94029.47;;;19.22;65.70
11339;BME280;5724;42.684;23.252;2023-08-01T03:51:01;94033.75;;;19.26;65.74
11339;BME280;5724;42.684;23.252;2023-08-01T03:53:29;94033.19;;;19.35;65.66
11339;BME280;5724;42.684;23.252;2023-08-01T03:55:54;94032.78;;;19.36;66.01
11339;BME280;5724;42.684;23.252;2023-08-01T03:58:19;94031.91;;;19.39;67.23
11339;BME280;5724;42.684;23.252;2023-08-01T04:00:45;94035.13;;;19.38;66.94
11339;BME280;5724;42.684;23.252;2023-08-01T04:03:10;94037.84;;;19.41;68.66
11339;BME280;5724;42.684;23.252;2023-08-01T04:05:36;94037.97;;;19.34;68.84
11339;BME280;5724;42.684;23.252;2023-08-01T04:08:01;94035.19;;;19.34;70.01
11339;BME280;5724;42.684;23.252;2023-08-01T04:10:27;94038.50;;;19.26;70.19
11339;BME280;5724;42.684;23.252;2023-08-01T04:12:52;94031.47;;;19.21;69.77
11339;BME280;5724;42.684;23.252;2023-08-01T04:15:18;94031.41;;;19.01;69.47
11339;BME280;5724;42.684;23.252;2023-08-01T04:17:43;94037.13;;;18.60;70.20
11339;BME280;5724;42.684;23.252;2023-08-01T04:20:09;94035.84;;;18.38;71.78
11339;BME280;5724;42.684;23.252;2023-08-01T04:22:35;94039.63;;;18.51;72.07
11339;BME280;5724;42.684;23.252;2023-08-01T04:25:01;94044.09;;;18.11;74.29
11339;BME280;5724;42.684;23.252;2023-08-01T04:27:29;94049.91;;;18.20;74.75
11339;BME280;5724;42.684;23.252;2023-08-01T04:29:58;94048.22;;;18.29;74.96
11339;BME280;5724;42.684;23.252;2023-08-01T04:32:23;94046.63;;;17.98;76.42
11339;BME280;5724;42.684;23.252;2023-08-01T04:34:49;94044.84;;;18.15;75.96
11339;BME280;5724;42.684;23.252;2023-08-01T04:37:15;94037.72;;;18.14;75.88
11339;BME280;5724;42.684;23.252;2023-08-01T04:39:40;94048.13;;;18.37;74.87
11339;BME280;5724;42.684;23.252;2023-08-01T04:42:06;94054.16;;;17.97;75.73
11339;BME280;5724;42.684;23.252;2023-08-01T04:44:31;94047.84;;;17.97;75.45
11339;BME280;5724;42.684;23.252;2023-08-01T04:46:57;94043.00;;;17.70;76.50
11339;BME280;5724;42.684;23.252;2023-08-01T04:49:22;94041.97;;;17.91;76.02
11339;BME280;5724;42.684;23.252;2023-08-01T04:51:50;94044.97;;;18.04;75.93
11339;BME280;5724;42.684;23.252;2023-08-01T04:54:16;94047.22;;;18.13;75.81
11339;BME280;5724;42.684;23.252;2023-08-01T04:56:41;94043.09;;;18.28;75.43
11339;BME280;5724;42.684;23.252;2023-08-01T04:59:06;94050.97;;;18.29;75.37
11339;BME280;5724;42.684;23.252;2023-08-01T05:01:32;94045.16;;;18.51;75.30
11339;BME280;5724;42.684;23.252;2023-08-01T05:03:58;94045.91;;;18.55;74.88
11339;BME280;5724;42.684;23.252;2023-08-01T05:06:23;94043.28;;;18.75;74.49
11339;BME280;5724;42.684;23.252;2023-08-01T05:08:49;94028.84;;;18.87;74.13
11339;BME280;5724;42.684;23.252;2023-08-01T05:11:14;94046.41;;;19.00;73.82
11339;BME280;5724;42.684;23.252;2023-08-01T05:13:39;94050.91;;;18.91;72.99
11339;BME280;5724;42.684;23.252;2023-08-01T05:16:05;94039.81;;;18.67;74.28
11339;BME280;5724;42.684;23.252;2023-08-01T05:18:30;94044.22;;;18.65;74.21
11339;BME280;5724;42.684;23.252;2023-08-01T05:20:56;94038.50;;;18.75;74.02
11339;BME280;5724;42.684;23.252;2023-08-01T05:23:21;94046.59;;;18.63;74.18
11339;BME280;5724;42.684;23.252;2023-08-01T05:25:46;94056.69;;;18.76;73.43
11339;BME280;5724;42.684;23.252;2023-08-01T05:28:12;94052.53;;;18.88;72.73
11339;BME280;5724;42.684;23.252;2023-08-01T05:30:37;94057.47;;;18.77;73.36
11339;BME280;5724;42.684;23.252;2023-08-01T05:33:03;94057.31;;;18.87;72.78
11339;BME280;5724;42.684;23.252;2023-08-01T05:35:28;94057.19;;;18.95;73.19
11339;BME280;5724;42.684;23.252;2023-08-01T05:37:54;94051.44;;;18.55;73.47
11339;BME280;5724;42.684;23.252;2023-08-01T05:40:19;94053.00;;;18.56;74.33
11339;BME280;5724;42.684;23.252;2023-08-01T05:42:45;94047.78;;;18.88;73.37
11339;BME280;5724;42.684;23.252;2023-08-01T05:45:10;94053.72;;;19.14;72.83
11339;BME280;5724;42.684;23.252;2023-08-01T05:47:37;94055.72;;;19.37;72.18
11339;BME280;5724;42.684;23.252;2023-08-01T05:50:02;94056.53;;;19.61;70.56
11339;BME280;5724;42.684;23.252;2023-08-01T05:52:29;94046.91;;;19.89;69.93
11339;BME280;5724;42.684;23.252;2023-08-01T05:54:55;94052.94;;;20.04;68.56
11339;BME280;5724;42.684;23.252;2023-08-01T05:57:20;94047.47;;;20.00;68.61
11339;BME280;5724;42.684;23.252;2023-08-01T05:59:46;94049.31;;;20.07;69.43
11339;BME280;5724;42.684;23.252;2023-08-01T06:02:11;94047.03;;;20.21;69.11
11339;BME280;5724;42.684;23.252;2023-08-01T06:04:36;94038.78;;;20.18;69.32
11339;BME280;5724;42.684;23.252;2023-08-01T06:07:04;94045.94;;;20.35;67.87
11339;BME280;5724;42.684;23.252;2023-08-01T06:09:29;94045.16;;;20.54;67.54
11339;BME280;5724;42.684;23.252;2023-08-01T06:11:55;94036.84;;;20.54;66.98
11339;BME280;5724;42.684;23.252;2023-08-01T06:14:20;94042.28;;;20.22;66.87
11339;BME280;5724;42.684;23.252;2023-08-01T06:16:46;94033.81;;;20.29;66.77
11339;BME280;5724;42.684;23.252;2023-08-01T06:19:11;94036.16;;;20.50;66.60
11339;BME280;5724;42.684;23.252;2023-08-01T06:21:37;94038.78;;;20.74;65.22
11339;BME280;5724;42.684;23.252;2023-08-01T06:24:03;94037.63;;;20.55;64.91
11339;BME280;5724;42.684;23.252;2023-08-01T06:26:28;94038.53;;;20.68;64.77
11339;BME280;5724;42.684;23.252;2023-08-01T06:28:54;94030.06;;;20.55;65.01
11339;BME280;5724;42.684;23.252;2023-08-01T06:31:20;94035.28;;;20.53;65.32
11339;BME280;5724;42.684;23.252;2023-08-01T06:33:45;94037.22;;;20.56;64.64
11339;BME280;5724;42.684;23.252;2023-08-01T06:36:11;94035.13;;;20.61;64.14
11339;BME280;5724;42.684;23.252;2023-08-01T06:38:36;94038.25;;;20.63;64.17
11339;BME280;5724;42.684;23.252;2023-08-01T06:41:02;94026.81;;;20.61;63.57
11339;BME280;5724;42.684;23.252;2023-08-01T06:43:28;94024.63;;;20.32;64.26
11339;BME280;5724;42.684;23.252;2023-08-01T06:45:53;94024.72;;;20.65;63.70
11339;BME280;5724;42.684;23.252;2023-08-01T06:48:19;94030.97;;;20.69;63.85
11339;BME280;5724;42.684;23.252;2023-08-01T06:50:44;94032.28;;;20.80;63.64
11339;BME280;5724;42.684;23.252;2023-08-01T06:53:10;94031.69;;;20.89;62.93
11339;BME280;5724;42.684;23.252;2023-08-01T06:55:35;94032.56;;;20.86;62.93
11339;BME280;5724;42.684;23.252;2023-08-01T06:58:00;94035.41;;;20.82;63.05
11339;BME280;5724;42.684;23.252;2023-08-01T07:00:26;94030.66;;;20.83;63.57
11339;BME280;5724;42.684;23.252;2023-08-01T07:02:51;94022.84;;;21.10;63.84
11339;BME280;5724;42.684;23.252;2023-08-01T07:05:17;94045.97;;;21.40;61.68
11339;BME280;5724;42.684;23.252;2023-08-01T07:07:43;94033.28;;;21.39;60.80
11339;BME280;5724;42.684;23.252;2023-08-01T07:10:08;94028.19;;;21.37;61.29
11339;BME280;5724;42.684;23.252;2023-08-01T07:12:34;94028.16;;;21.54;60.42
11339;BME280;5724;42.684;23.252;2023-08-01T07:15:00;94027.44;;;21.95;59.89
11339;BME280;5724;42.684;23.252;2023-08-01T07:17:25;94025.56;;;21.92;59.90
11339;BME280;5724;42.684;23.252;2023-08-01T07:19:50;94015.88;;;21.67;59.37
11339;BME280;5724;42.684;23.252;2023-08-01T07:22:16;94022.94;;;21.56;60.41
11339;BME280;5724;42.684;23.252;2023-08-01T07:24:42;94012.44;;;21.63;60.36
11339;BME280;5724;42.684;23.252;2023-08-01T07:27:07;94006.75;;;21.67;60.35
11339;BME280;5724;42.684;23.252;2023-08-01T07:29:33;94013.88;;;21.97;59.87
11339;BME280;5724;42.684;23.252;2023-08-01T07:31:58;94010.13;;;22.33;59.65
11339;BME280;5724;42.684;23.252;2023-08-01T07:34:23;94012.81;;;22.49;58.87
11339;BME280;5724;42.684;23.252;2023-08-01T07:36:49;94005.31;;;22.88;58.04
11339;BME280;5724;42.684;23.252;2023-08-01T07:39:15;94009.41;;;23.08;57.35
11339;BME280;5724;42.684;23.252;2023-08-01T07:41:41;94001.69;;;23.25;56.23
11339;BME280;5724;42.684;23.252;2023-08-01T07:44:06;94012.69;;;23.41;56.02
11339;BME280;5724;42.684;23.252;2023-08-01T07:46:32;94014.56;;;23.45;56.17
11339;BME280;5724;42.684;23.252;2023-08-01T07:48:58;94005.47;;;23.31;56.39
11339;BME280;5724;42.684;23.252;2023-08-01T07:51:25;94012.34;;;23.65;55.61
11339;BME280;5724;42.684;23.252;2023-08-01T07:53:51;94011.81;;;23.32;56.34
11339;BME280;5724;42.684;23.252;2023-08-01T07:56:19;93998.91;;;23.12;56.58
11339;BME280;5724;42.684;23.252;2023-08-01T07:58:45;94004.88;;;23.49;56.68
11339;BME280;5724;42.684;23.252;2023-08-01T08:01:10;94006.19;;;23.70;55.47
11339;BME280;5724;42.684;23.252;2023-08-01T08:03:36;94006.03;;;23.86;55.27
11339;BME280;5724;42.684;23.252;2023-08-01T08:06:01;94000.91;;;23.37;56.13
11339;BME280;5724;42.684;23.252;2023-08-01T08:08:28;94001.50;;;23.67;56.17
11339;BME280;5724;42.684;23.252;2023-08-01T08:10:54;93986.81;;;23.41;55.62
11339;BME280;5724;42.684;23.252;2023-08-01T08:13:20;93988.69;;;23.57;55.17
11339;BME280;5724;42.684;23.252;2023-08-01T08:15:45;93992.06;;;23.86;55.40
11339;BME280;5724;42.684;23.252;2023-08-01T08:18:11;93980.44;;;24.10;54.73
11339;BME280;5724;42.684;23.252;2023-08-01T08:20:44;93981.94;;;24.45;53.55
11339;BME280;5724;42.684;23.252;2023-08-01T08:23:11;93979.09;;;24.36;53.53
11339;BME280;5724;42.684;23.252;2023-08-01T08:25:39;93985.59;;;24.33;53.85
11339;BME280;5724;42.684;23.252;2023-08-01T08:28:04;93983.31;;;24.41;53.94
11339;BME280;5724;42.684;23.252;2023-08-01T08:30:30;93984.88;;;24.73;53.60
11339;BME280;5724;42.684;23.252;2023-08-01T08:32:57;93967.19;;;24.45;53.29
11339;BME280;5724;42.684;23.252;2023-08-01T08:35:23;93983.34;;;24.28;54.18
11339;BME280;5724;42.684;23.252;2023-08-01T08:37:48;93970.72;;;24.36;53.71
11339;BME280;5724;42.684;23.252;2023-08-01T08:40:13;93973.09;;;24.47;53.68
11339;BME280;5724;42.684;23.252;2023-08-01T08:42:39;93966.59;;;24.81;53.19
11339;BME280;5724;42.684;23.252;2023-08-01T08:45:05;93973.72;;;25.13;52.31
11339;BME280;5724;42.684;23.252;2023-08-01T08:47:36;93965.66;;;24.44;53.78
11339;BME280;5724;42.684;23.252;2023-08-01T08:50:02;93959.00;;;24.28;54.02
11339;BME280;5724;42.684;23.252;2023-08-01T08:52:27;93955.66;;;24.34;54.07
11339;BME280;5724;42.684;23.252;2023-08-01T08:54:53;93957.53;;;24.68;52.97
11339;BME280;5724;42.684;23.252;2023-08-01T08:57:20;93947.75;;;25.03;52.36
11339;BME280;5724;42.684;23.252;2023-08-01T08:59:47;93961.19;;;25.36;52.10
11339;BME280;5724;42.684;23.252;2023-08-01T09:02:14;93952.31;;;25.19;51.23
11339;BME280;5724;42.684;23.252;2023-08-01T09:04:40;93952.56;;;25.03;52.37
11339;BME280;5724;42.684;23.252;2023-08-01T09:07:09;93937.00;;;24.93;52.26
11339;BME280;5724;42.684;23.252;2023-08-01T09:09:34;93933.03;;;25.21;52.18
11339;BME280;5724;42.684;23.252;2023-08-01T09:12:00;93949.88;;;25.49;51.81
11339;BME280;5724;42.684;23.252;2023-08-01T09:14:26;93944.47;;;25.82;50.87
11339;BME280;5724;42.684;23.252;2023-08-01T09:16:51;93932.94;;;25.98;49.56
11339;BME280;5724;42.684;23.252;2023-08-01T09:19:23;93929.19;;;26.10;50.25
11339;BME280;5724;42.684;23.252;2023-08-01T09:21:49;93936.97;;;26.15;49.43
11339;BME280;5724;42.684;23.252;2023-08-01T09:24:19;93930.13;;;26.16;49.17
11339;BME280;5724;42.684;23.252;2023-08-01T09:26:46;93931.47;;;26.48;49.21
11339;BME280;5724;42.684;23.252;2023-08-01T09:29:12;93936.38;;;26.63;48.47
11339;BME280;5724;42.684;23.252;2023-08-01T09:31:41;93929.47;;;26.82;48.07
11339;BME280;5724;42.684;23.252;2023-08-01T09:36:45;93916.75;;;26.72;47.19
11339;BME280;5724;42.684;23.252;2023-08-01T09:39:19;93916.97;;;26.50;47.19
11339;BME280;5724;42.684;23.252;2023-08-01T09:41:46;93928.38;;;26.28;47.66
11339;BME280;5724;42.684;23.252;2023-08-01T09:44:15;93922.66;;;26.04;48.56
11339;BME280;5724;42.684;23.252;2023-08-01T09:46:41;93920.50;;;25.90;48.79
11339;BME280;5724;42.684;23.252;2023-08-01T09:49:11;93917.09;;;25.77;49.09
11339;BME280;5724;42.684;23.252;2023-08-01T09:51:47;93906.53;;;25.72;48.78
11339;BME280;5724;42.684;23.252;2023-08-01T09:54:15;93897.19;;;25.29;49.54
11339;BME280;5724;42.684;23.252;2023-08-01T09:56:44;93904.50;;;25.72;49.78
11339;BME280;5724;42.684;23.252;2023-08-01T09:59:10;93901.88;;;25.87;49.23
11339;BME280;5724;42.684;23.252;2023-08-01T10:01:38;93899.69;;;25.82;49.41
11339;BME280;5724;42.684;23.252;2023-08-01T10:04:07;93888.72;;;26.20;48.03
11339;BME280;5724;42.684;23.252;2023-08-01T10:06:34;93888.56;;;26.24;47.03
11339;BME280;5724;42.684;23.252;2023-08-01T10:09:02;93888.00;;;26.02;47.49
11339;BME280;5724;42.684;23.252;2023-08-01T10:11:30;93875.56;;;25.84;48.42
11339;BME280;5724;42.684;23.252;2023-08-01T10:13:59;93880.44;;;26.35;48.09
11339;BME280;5724;42.684;23.252;2023-08-01T10:16:25;93880.53;;;26.59;46.85
11339;BME280;5724;42.684;23.252;2023-08-01T10:18:51;93870.09;;;26.93;46.19
11339;BME280;5724;42.684;23.252;2023-08-01T10:21:17;93875.75;;;26.84;45.43
11339;BME280;5724;42.684;23.252;2023-08-01T10:23:46;93868.22;;;26.90;46.47
11339;BME280;5724;42.684;23.252;2023-08-01T10:26:13;93865.97;;;27.12;46.35
11339;BME280;5724;42.684;23.252;2023-08-01T10:28:41;93864.72;;;27.52;45.37
11339;BME280;5724;42.684;23.252;2023-08-01T10:31:15;93860.72;;;27.67;44.46
11339;BME280;5724;42.684;23.252;2023-08-01T10:33:43;93856.38;;;27.43;43.79
11339;BME280;5724;42.684;23.252;2023-08-01T10:36:22;93856.47;;;26.76;43.87
11339;BME280;5724;42.684;23.252;2023-08-01T10:38:57;93857.84;;;26.81;44.14
11339;BME280;5724;42.684;23.252;2023-08-01T10:41:33;93855.69;;;26.76;44.67
11339;BME280;5724;42.684;23.252;2023-08-01T10:44:14;93850.38;;;26.54;43.25
11339;BME280;5724;42.684;23.252;2023-08-01T10:49:11;93834.03;;;27.00;36.55
11339;BME280;5724;42.684;23.252;2023-08-01T10:51:37;93837.38;;;27.37;36.95
11339;BME280;5724;42.684;23.252;2023-08-01T10:54:02;93839.50;;;27.66;37.37
11339;BME280;5724;42.684;23.252;2023-08-01T10:56:28;93838.53;;;27.70;35.97
11339;BME280;5724;42.684;23.252;2023-08-01T10:58:54;93826.16;;;27.76;35.80
11339;BME280;5724;42.684;23.252;2023-08-01T11:01:19;93822.00;;;27.86;35.33
11339;BME280;5724;42.684;23.252;2023-08-01T11:03:45;93821.25;;;28.01;35.00
11339;BME280;5724;42.684;23.252;2023-08-01T11:06:11;93812.41;;;28.08;34.62
11339;BME280;5724;42.684;23.252;2023-08-01T11:08:37;93816.00;;;28.23;34.65
11339;BME280;5724;42.684;23.252;2023-08-01T11:11:09;93810.19;;;28.12;33.72
11339;BME280;5724;42.684;23.252;2023-08-01T11:13:36;93810.25;;;28.47;34.44
11339;BME280;5724;42.684;23.252;2023-08-01T11:16:03;93802.03;;;28.43;34.82
11339;BME280;5724;42.684;23.252;2023-08-01T11:18:30;93807.44;;;28.62;33.33
11339;BME280;5724;42.684;23.252;2023-08-01T11:20:57;93807.69;;;28.64;32.78
11339;BME280;5724;42.684;23.252;2023-08-01T11:23:29;93805.38;;;28.62;32.23
11339;BME280;5724;42.684;23.252;2023-08-01T11:25:55;93800.69;;;28.89;32.25
11339;BME280;5724;42.684;23.252;2023-08-01T11:28:21;93793.16;;;29.00;32.83
11339;BME280;5724;42.684;23.252;2023-08-01T11:30:48;93789.03;;;29.16;33.20
11339;BME280;5724;42.684;23.252;2023-08-01T11:33:21;93793.44;;;29.23;30.95
11339;BME280;5724;42.684;23.252;2023-08-01T11:35:54;93789.66;;;29.05;30.19
11339;BME280;5724;42.684;23.252;2023-08-01T11:38:23;93788.34;;;28.86;30.13
11339;BME280;5724;42.684;23.252;2023-08-01T11:40:51;93780.38;;;28.85;30.30
11339;BME280;5724;42.684;23.252;2023-08-01T11:43:17;93792.53;;;28.91;30.88
11339;BME280;5724;42.684;23.252;2023-08-01T11:45:52;93775.00;;;29.01;29.25
11339;BME280;5724;42.684;23.252;2023-08-01T11:48:21;93777.13;;;29.27;28.52
11339;BME280;5724;42.684;23.252;2023-08-01T11:50:47;93778.09;;;29.24;29.37
11339;BME280;5724;42.684;23.252;2023-08-01T11:53:20;93778.25;;;29.15;28.53
11339;BME280;5724;42.684;23.252;2023-08-01T11:55:47;93770.16;;;29.02;29.34
11339;BME280;5724;42.684;23.252;2023-08-01T11:58:13;93766.53;;;28.81;28.79
11339;BME280;5724;42.684;23.252;2023-08-01T12:00:39;93760.13;;;28.95;30.17
11339;BME280;5724;42.684;23.252;2023-08-01T12:03:10;93755.47;;;29.13;30.50
11339;BME280;5724;42.684;23.252;2023-08-01T12:05:40;93757.63;;;29.03;29.56
11339;BME280;5724;42.684;23.252;2023-08-01T12:08:15;93754.13;;;29.08;27.85
11339;BME280;5724;42.684;23.252;2023-08-01T12:10:42;93750.41;;;29.17;28.28
11339;BME280;5724;42.684;23.252;2023-08-01T12:13:21;93740.84;;;29.08;28.71
11339;BME280;5724;42.684;23.252;2023-08-01T12:15:48;93737.75;;;29.06;29.24
11339;BME280;5724;42.684;23.252;2023-08-01T12:18:27;93748.84;;;29.36;29.61
11339;BME280;5724;42.684;23.252;2023-08-01T12:20:53;93742.28;;;29.45;27.73
11339;BME280;5724;42.684;23.252;2023-08-01T12:23:19;93732.72;;;29.36;27.75
11339;BME280;5724;42.684;23.252;2023-08-01T12:25:45;93730.94;;;29.39;27.18
11339;BME280;5724;42.684;23.252;2023-08-01T12:28:13;93741.06;;;29.51;27.88
11339;BME280;5724;42.684;23.252;2023-08-01T12:30:40;93734.25;;;29.58;27.51
11339;BME280;5724;42.684;23.252;2023-08-01T12:33:07;93739.94;;;29.63;28.12
11339;BME280;5724;42.684;23.252;2023-08-01T12:35:32;93739.16;;;29.63;28.66
11339;BME280;5724;42.684;23.252;2023-08-01T12:37:58;93730.34;;;29.81;27.66
11339;BME280;5724;42.684;23.252;2023-08-01T12:40:23;93725.31;;;29.91;27.01
11339;BME280;5724;42.684;23.252;2023-08-01T12:42:49;93725.75;;;30.10;27.22
11339;BME280;5724;42.684;23.252;2023-08-01T12:45:15;93728.94;;;30.23;27.44
11339;BME280;5724;42.684;23.252;2023-08-01T12:47:40;93733.56;;;30.26;27.60
11339;BME280;5724;42.684;23.252;2023-08-01T12:50:06;93729.06;;;30.08;27.30
11339;BME280;5724;42.684;23.252;2023-08-01T12:52:32;93710.56;;;30.02;27.65
11339;BME280;5724;42.684;23.252;2023-08-01T12:54:57;93717.75;;;30.03;27.97
11339;BME280;5724;42.684;23.252;2023-08-01T12:57:23;93714.09;;;29.97;28.75
11339;BME280;5724;42.684;23.252;2023-08-01T12:59:48;93711.47;;;29.87;29.47
11339;BME280;5724;42.684;23.252;2023-08-01T13:02:14;93708.72;;;29.99;28.74